Time;durP1;ratioP1;P1;durP2;ratioP2;P2;SDS_P1;SDS_P2;PMS_P1;PMS_P2;Temp;Humidity;BMP_temperature;BMP_pressure;BME280_temperature;BME280_humidity;BME280_pressure;Samples;Min_cycle;Max_cycle;Signal;HPM_P1;HPM_P2
2023/10/05 00:03:47;;;;;;;12.10;6.68;;;;;;;11.70;100.00;101412.22;4971393;28;20081;-58
2023/10/05 00:06:16;;;;;;;17.15;7.38;;;;;;;11.66;100.00;101407.13;4957575;28;20525;-59
2023/10/05 00:08:47;;;;;;;11.90;6.35;;;;;;;11.67;100.00;101407.97;4968057;28;20058;-59
2023/10/05 00:11:30;;;;;;;13.02;6.15;;;;;;;11.65;100.00;101407.19;4971260;28;20046;-60
2023/10/05 00:13:59;;;;;;;13.05;5.82;;;;;;;11.61;100.00;101406.47;4971450;28;20086;-60
2023/10/05 00:16:36;;;;;;;14.57;6.72;;;;;;;11.60;100.00;101407.41;4972371;28;20062;-60
2023/10/05 00:19:10;;;;;;;16.38;7.47;;;;;;;11.59;100.00;101412.78;4971624;28;20821;-61
2023/10/05 00:21:56;;;;;;;14.45;7.18;;;;;;;11.57;100.00;101407.59;4976534;28;20042;-62
2023/10/05 00:24:29;;;;;;;;;;;;;;;11.55;100.00;101424.41;4983619;28;20059;-60
2023/10/05 00:26:58;;;;;;;11.15;6.22;;;;;;;11.52;100.00;101414.00;4968226;28;19949;-62
2023/10/05 00:31:55;;;;;;;15.20;6.97;;;;;;;11.54;100.00;101417.44;4978156;28;20113;-63
2023/10/05 00:34:27;;;;;;;13.30;6.68;;;;;;;11.52;100.00;101414.00;4976912;28;20059;-61
2023/10/05 00:36:58;;;;;;;13.85;6.53;;;;;;;11.51;100.00;101415.78;4969649;28;20065;-63
2023/10/05 00:39:30;;;;;;;14.88;6.90;;;;;;;11.51;100.00;101407.03;4973794;28;20066;-63
2023/10/05 00:44:26;;;;;;;16.70;6.90;;;;;;;11.53;100.00;101402.56;4960010;28;20055;-62
2023/10/05 00:46:54;;;;;;;13.50;6.20;;;;;;;11.50;100.00;101395.63;4962995;28;20065;-64
2023/10/05 00:49:27;;;;;;;13.13;6.47;;;;;;;11.48;100.00;101402.75;4971585;28;20299;-63
2023/10/05 00:54:56;;;;;;;12.05;6.72;;;;;;;11.47;100.00;101398.41;4959062;28;20521;-62
2023/10/05 00:57:24;;;;;;;10.10;5.70;;;;;;;11.47;100.00;101398.41;4974979;28;20117;-62
2023/10/05 01:02:26;;;;;;;13.05;6.88;;;;;;;11.46;100.00;101395.88;4972065;28;20051;-62
2023/10/05 01:05:14;;;;;;;13.63;6.38;;;;;;;11.48;100.00;101391.38;4963540;28;20505;-61
2023/10/05 01:12:51;;;;;;;14.43;6.75;;;;;;;11.50;100.00;101379.81;4966988;28;20097;-62
2023/10/05 01:15:21;;;;;;;13.05;5.55;;;;;;;11.53;100.00;101374.41;4935979;28;20055;-61
2023/10/05 01:17:51;;;;;;;15.13;7.03;;;;;;;11.51;100.00;101370.97;4967829;28;20058;-61
2023/10/05 01:20:22;;;;;;;14.43;6.35;;;;;;;11.52;100.00;101362.13;4966350;28;20402;-61
2023/10/05 01:22:54;;;;;;;12.00;5.07;;;;;;;11.52;100.00;101359.47;4970253;28;20482;-61
2023/10/05 01:25:22;;;;;;;16.10;6.55;;;;;;;11.55;100.00;101363.75;4969445;28;20572;-60
2023/10/05 01:27:50;;;;;;;10.45;5.20;;;;;;;11.53;100.00;101348.03;4968211;28;20632;-61
2023/10/05 01:30:19;;;;;;;13.88;5.97;;;;;;;11.52;100.00;101346.31;4962122;28;20102;-61
2023/10/05 01:32:47;;;;;;;13.88;5.10;;;;;;;11.53;100.00;101337.47;4951863;28;20043;-61
2023/10/05 01:35:17;;;;;;;13.32;5.30;;;;;;;11.51;100.00;101335.84;4970954;28;20141;-61
2023/10/05 01:37:47;;;;;;;12.63;5.72;;;;;;;11.51;100.00;101322.66;4967457;28;20057;-60
2023/10/05 01:40:23;;;;;;;13.75;6.85;;;;;;;11.52;100.00;101333.13;4974281;28;20117;-65
2023/10/05 01:42:52;;;;;;;13.40;5.47;;;;;;;11.51;100.00;101328.78;4967079;28;20071;-62
2023/10/05 01:45:29;;;;;;;23.38;6.75;;;;;;;11.48;100.00;101318.38;4969226;28;20399;-62
2023/10/05 01:48:12;;;;;;;16.52;5.97;;;;;;;11.52;100.00;101332.25;4974775;28;20070;-63
2023/10/05 01:50:39;;;;;;;13.77;5.68;;;;;;;11.50;100.00;101332.34;4968614;28;20133;-64
2023/10/05 01:53:07;;;;;;;17.30;5.43;;;;;;;11.52;100.00;101324.34;4966657;28;20122;-63
2023/10/05 01:55:36;;;;;;;13.32;6.30;;;;;;;11.52;100.00;101319.09;4974408;28;20106;-64
2023/10/05 01:58:13;;;;;;;15.45;6.70;;;;;;;11.52;100.00;101327.00;4976730;28;20047;-65
2023/10/05 02:00:41;;;;;;;11.75;5.22;;;;;;;11.49;100.00;101330.66;4985947;28;20055;-64
2023/10/05 02:03:11;;;;;;;13.07;5.70;;;;;;;11.49;100.00;101330.66;4969111;28;20048;-63
2023/10/05 02:05:39;;;;;;;15.18;5.85;;;;;;;11.51;100.00;101325.28;4974158;28;20042;-63
2023/10/05 02:08:07;;;;;;;13.93;5.60;;;;;;;11.52;100.00;101319.94;4954563;28;20066;-63
2023/10/05 02:10:39;;;;;;;13.88;5.35;;;;;;;11.52;100.00;101321.72;4975377;28;20058;-62
2023/10/05 02:13:12;;;;;;;19.55;5.50;;;;;;;11.56;100.00;101312.72;4977206;28;20101;-61
2023/10/05 02:15:40;;;;;;;12.43;5.53;;;;;;;11.51;100.00;101322.66;4971468;28;20046;-63
2023/10/05 02:18:28;;;;;;;14.18;5.13;;;;;;;11.53;100.00;101312.91;4974664;28;20061;-63
2023/10/05 02:21:08;;;;;;;15.00;5.93;;;;;;;11.51;100.00;101302.41;4973506;28;20059;-61
2023/10/05 02:23:42;;;;;;;9.20;4.72;;;;;;;11.52;100.00;101301.47;4978735;28;20051;-62
2023/10/05 02:26:24;;;;;;;12.98;5.60;;;;;;;11.53;100.00;101299.72;4971144;28;20051;-63
2023/10/05 02:28:51;;;;;;;12.40;5.72;;;;;;;11.52;100.00;101303.25;4991969;28;20386;-63
2023/10/05 02:31:20;;;;;;;18.00;5.90;;;;;;;11.53;100.00;101295.28;4985379;28;20047;-64
2023/10/05 02:33:48;;;;;;;14.20;5.93;;;;;;;11.53;100.00;101297.94;4965363;28;20035;-61
2023/10/05 02:36:21;;;;;;;11.38;5.63;;;;;;;11.54;100.00;101290.88;4972949;28;20042;-62
2023/10/05 02:38:49;;;;;;;15.48;6.18;;;;;;;11.55;100.00;101282.03;4974323;28;20078;-65
2023/10/05 02:41:20;;;;;;;12.35;5.28;;;;;;;11.53;100.00;101279.47;4992129;28;20078;-62
2023/10/05 02:43:52;;;;;;;14.02;5.38;;;;;;;11.54;100.00;101282.97;4970531;28;20047;-62
2023/10/05 02:46:24;;;;;;;14.25;4.95;;;;;;;11.54;100.00;101285.59;4993247;28;20509;-62
2023/10/05 02:48:52;;;;;;;17.42;6.22;;;;;;;11.55;100.00;101285.50;4982882;28;20051;-61
2023/10/05 02:51:20;;;;;;;13.05;5.30;;;;;;;11.58;100.00;101282.72;4975836;28;20055;-61
2023/10/05 02:53:47;;;;;;;12.35;5.35;;;;;;;11.58;100.00;101281.88;4975028;28;20051;-63
2023/10/05 02:56:27;;;;;;;10.18;5.13;;;;;;;11.57;100.00;101270.47;4977285;28;20055;-62
2023/10/05 02:58:56;;;;;;;12.45;5.18;;;;;;;11.57;100.00;101275.75;4978389;28;20051;-62
2023/10/05 03:01:24;;;;;;;12.35;5.13;;;;;;;11.59;100.00;101273.88;4974085;28;20039;-63
2023/10/05 03:03:51;;;;;;;10.25;5.35;;;;;;;11.59;100.00;101265.94;4954454;28;20039;-63
2023/10/05 03:06:22;;;;;;;13.30;5.20;;;;;;;11.62;100.00;101267.59;4957581;28;20075;-62
2023/10/05 03:08:54;;;;;;;16.50;5.45;;;;;;;11.63;100.00;101272.78;4974968;28;20043;-61
2023/10/05 03:11:25;;;;;;;17.33;5.75;;;;;;;11.64;100.00;101269.19;4975701;28;20062;-62
2023/10/05 03:13:52;;;;;;;13.38;5.03;;;;;;;11.66;100.00;101272.63;4963727;28;20042;-62
2023/10/05 03:16:21;;;;;;;13.98;5.18;;;;;;;11.69;100.00;101268.09;4954943;28;20046;-60
2023/10/05 03:18:49;;;;;;;11.77;5.50;;;;;;;11.72;100.00;101273.22;4956570;28;20049;-62
2023/10/05 03:21:21;;;;;;;13.77;5.43;;;;;;;11.72;100.00;101266.16;4967092;28;20054;-60
2023/10/05 03:23:48;;;;;;;17.52;5.55;;;;;;;11.72;100.00;101268.78;4964697;28;20129;-59
2023/10/05 03:26:17;;;;;;;15.75;4.85;;;;;;;11.72;100.00;101260.03;4971304;28;20047;-58
2023/10/05 03:28:45;;;;;;;13.02;5.45;;;;;;;11.71;100.00;101266.22;4988216;28;20051;-58
2023/10/05 03:31:37;;;;;;;19.20;5.90;;;;;;;11.70;100.00;101254.81;4984496;28;20042;-59
2023/10/05 03:34:06;;;;;;;15.02;5.38;;;;;;;11.72;100.00;101252.13;4973092;28;20059;-61
2023/10/05 03:36:35;;;;;;;13.93;5.10;;;;;;;11.73;100.00;101251.19;4971384;28;20051;-60
2023/10/05 03:39:06;;;;;;;14.75;5.60;;;;;;;11.72;99.59;101250.34;4972331;28;20536;-58
2023/10/05 03:41:38;;;;;;;11.70;5.35;;;;;;;11.72;99.82;101257.41;4956346;28;20051;-61
2023/10/05 03:44:07;;;;;;;16.20;5.70;;;;;;;11.72;99.80;101252.13;4963792;28;20063;-61
2023/10/05 03:46:35;;;;;;;16.20;5.85;;;;;;;11.73;99.58;101253.81;4956086;28;20485;-60
2023/10/05 03:49:06;;;;;;;15.88;5.95;;;;;;;11.72;99.44;101252.97;4971410;28;20051;-60
2023/10/05 03:51:43;;;;;;;12.45;5.20;;;;;;;11.74;99.42;101255.50;4966085;28;20097;-61
2023/10/05 03:54:10;;;;;;;;;;;;;;;11.71;99.48;101250.41;4962309;28;20078;-60
2023/10/05 03:56:37;;;;;;;13.98;5.40;;;;;;;11.72;99.27;101252.13;4973885;28;19926;-60
2023/10/05 03:59:05;;;;;;;17.95;6.78;;;;;;;11.72;98.90;101250.34;4953527;28;20058;-59
2023/10/05 04:01:33;;;;;;;11.63;5.22;;;;;;;11.74;98.59;101247.59;4947054;28;20059;-65
2023/10/05 04:04:04;;;;;;;11.63;5.30;;;;;;;11.72;98.83;101238.94;4951450;28;20046;-62
2023/10/05 04:06:32;;;;;;;15.90;6.05;;;;;;;11.72;98.84;101247.69;4953023;28;20618;-61
2023/10/05 04:09:00;;;;;;;12.57;4.82;;;;;;;11.71;98.81;101230.16;4971480;28;20066;-60
2023/10/05 04:11:28;;;;;;;13.40;5.47;;;;;;;11.73;98.38;101230.09;4968305;28;20059;-61
2023/10/05 04:13:57;;;;;;;19.10;6.22;;;;;;;11.73;97.95;101230.94;4968333;28;20031;-63
2023/10/05 04:16:26;;;;;;;13.93;5.75;;;;;;;11.73;97.81;101235.34;4961841;28;20054;-60
2023/10/05 04:18:59;;;;;;;14.80;6.47;;;;;;;11.73;98.33;101227.44;4968702;28;20054;-60
2023/10/05 04:24:49;;;;;;;10.73;5.10;;;;;;;11.74;97.83;101222.06;5004425;28;20061;-60
2023/10/05 04:27:18;;;;;;;10.35;5.10;;;;;;;11.77;98.02;101226.34;5019696;28;20631;-59
2023/10/05 04:29:46;;;;;;;12.20;5.90;;;;;;;11.76;97.62;101207.03;5022145;28;20571;-62
2023/10/05 04:32:15;;;;;;;12.48;5.68;;;;;;;11.77;97.67;101206.09;5007535;28;20536;-60
2023/10/05 04:34:46;;;;;;;16.23;6.75;;;;;;;11.76;97.69;101224.66;5010636;28;20038;-59
2023/10/05 04:37:13;;;;;;;15.00;5.97;;;;;;;11.75;98.04;101204.47;5008439;28;20081;-60
2023/10/05 04:39:43;;;;;;;10.73;5.55;;;;;;;11.71;98.00;101195.00;5011450;28;20053;-61
2023/10/05 04:42:15;;;;;;;14.90;5.10;;;;;;;11.71;98.21;101213.47;4990568;28;20061;-60
2023/10/05 04:44:45;;;;;;;14.65;5.45;;;;;;;11.74;98.38;101215.94;4994985;28;20042;-60
2023/10/05 04:47:14;;;;;;;21.38;5.70;;;;;;;11.74;98.21;101208.03;4996660;28;20034;-59
2023/10/05 04:49:44;;;;;;;13.20;5.40;;;;;;;11.73;98.12;101209.81;5021465;28;20066;-60
2023/10/05 04:52:19;;;;;;;17.33;5.75;;;;;;;11.66;98.34;101197.91;4987431;28;20559;-57
2023/10/05 04:54:51;;;;;;;10.85;6.18;;;;;;;11.69;98.38;101188.97;5024422;28;20065;-60
2023/10/05 04:57:34;;;;;;;17.38;5.30;;;;;;;11.71;98.21;101198.53;5007953;28;20050;-60
2023/10/05 05:00:49;;;;;;;16.33;6.72;;;;;;;11.73;98.40;101186.09;5023962;28;20050;-60
2023/10/05 05:03:16;;;;;;;18.77;5.90;;;;;;;11.71;98.25;101181.81;4996020;28;20281;-60
2023/10/05 05:06:00;;;;;;;11.25;5.55;;;;;;;11.71;98.77;101177.44;4992916;28;20668;-60
2023/10/05 05:08:28;;;;;;;15.52;5.80;;;;;;;11.73;98.54;101179.97;5020132;28;20424;-60
2023/10/05 05:10:58;;;;;;;12.23;5.82;;;;;;;11.76;98.31;101175.38;5023357;28;20568;-60
2023/10/05 05:13:28;;;;;;;14.40;5.10;;;;;;;11.73;98.53;101175.53;5014679;28;20054;-59
2023/10/05 05:15:57;;;;;;;19.58;5.93;;;;;;;11.76;98.93;101174.53;4982477;28;20053;-57
2023/10/05 05:18:24;;;;;;;14.07;6.28;;;;;;;11.76;98.81;101178.03;5004743;28;20465;-59
2023/10/05 05:20:53;;;;;;;11.15;5.55;;;;;;;11.75;98.92;101178.97;5000165;28;20464;-60
2023/10/05 05:23:21;;;;;;;17.17;6.20;;;;;;;11.77;98.94;101184.13;5011768;28;20053;-59
2023/10/05 05:25:51;;;;;;;15.63;6.38;;;;;;;11.79;98.63;101176.97;4996840;28;20070;-61
2023/10/05 05:28:19;;;;;;;16.23;5.85;;;;;;;11.82;98.71;101174.19;5010017;28;20508;-57
2023/10/05 05:30:47;;;;;;;18.95;6.53;;;;;;;11.82;98.45;101169.78;4996212;28;20119;-55
2023/10/05 05:33:17;;;;;;;17.35;5.97;;;;;;;11.82;98.68;101172.44;5009506;28;20069;-58
2023/10/05 05:35:45;;;;;;;16.50;6.00;;;;;;;11.84;98.62;101170.56;5003687;28;20065;-58
2023/10/05 05:38:13;;;;;;;15.57;6.15;;;;;;;11.84;98.56;101177.59;4999295;28;20137;-61
2023/10/05 05:40:43;;;;;;;15.70;5.90;;;;;;;11.82;99.01;101166.28;5003449;28;20076;-62
2023/10/05 05:43:14;;;;;;;15.38;6.45;;;;;;;11.84;98.56;101175.84;5005065;28;20080;-62
2023/10/05 05:45:44;;;;;;;17.58;5.70;;;;;;;11.84;99.08;101180.25;5007390;28;20184;-62
2023/10/05 05:48:14;;;;;;;15.57;6.03;;;;;;;11.87;98.43;101174.81;5009074;28;20111;-61
2023/10/05 05:50:43;;;;;;;14.40;6.28;;;;;;;11.91;98.43;101178.97;5003733;28;20127;-62
2023/10/05 05:53:16;;;;;;;18.15;5.78;;;;;;;11.91;98.35;101173.69;5005368;28;20152;-62
2023/10/05 05:55:52;;;;;;;17.67;6.30;;;;;;;11.94;98.60;101170.06;5005242;28;20100;-62
2023/10/05 05:58:20;;;;;;;15.98;5.97;;;;;;;11.97;98.35;101173.34;5006096;28;20155;-62
2023/10/05 06:00:52;;;;;;;11.50;5.43;;;;;;;12.02;98.04;101181.00;5008647;28;20096;-63
2023/10/05 06:03:20;;;;;;;19.88;6.82;;;;;;;12.01;98.32;101177.53;5026798;28;20093;-62
2023/10/05 06:05:48;;;;;;;15.98;6.00;;;;;;;12.03;98.09;101183.59;5011866;28;20098;-61
2023/10/05 06:08:16;;;;;;;13.98;6.07;;;;;;;12.11;97.81;101181.38;5005700;28;20045;-62
2023/10/05 06:10:46;;;;;;;11.73;5.43;;;;;;;12.13;97.88;101178.63;5005047;28;20396;-62
2023/10/05 06:13:14;;;;;;;12.45;5.75;;;;;;;12.16;97.30;101175.81;5007158;28;20116;-61
2023/10/05 06:15:42;;;;;;;16.05;6.22;;;;;;;12.24;96.84;101165.66;5002902;28;20042;-60
2023/10/05 06:18:09;;;;;;;15.98;6.05;;;;;;;12.27;96.66;101173.41;5006347;28;20641;-61
2023/10/05 06:20:36;;;;;;;14.52;6.10;;;;;;;12.31;96.78;101171.44;5006377;28;20057;-62
2023/10/05 06:23:05;;;;;;;11.77;5.38;;;;;;;12.38;96.74;101172.78;5008540;28;20221;-62
2023/10/05 06:25:32;;;;;;;22.30;6.65;;;;;;;12.41;96.50;101180.53;5003675;28;20567;-60
2023/10/05 06:28:00;;;;;;;16.38;7.07;;;;;;;12.37;96.81;101174.56;5010635;28;20053;-61
2023/10/05 06:30:27;;;;;;;18.38;6.05;;;;;;;12.45;96.29;101178.56;5004848;28;20054;-62
2023/10/05 06:32:54;;;;;;;15.43;6.93;;;;;;;12.51;95.84;101186.13;5008625;28;20069;-62
2023/10/05 06:35:22;;;;;;;12.40;5.70;;;;;;;12.52;95.87;101178.16;5004700;28;20041;-60
2023/10/05 06:37:49;;;;;;;17.38;6.72;;;;;;;12.57;95.71;101181.38;5005732;28;20100;-62
2023/10/05 06:40:21;;;;;;;17.05;5.97;;;;;;;12.73;95.85;101185.72;5005619;28;20132;-62
2023/10/05 06:42:50;;;;;;;15.02;6.25;;;;;;;12.76;94.86;101183.78;5004704;28;20049;-62
2023/10/05 06:45:23;;;;;;;13.15;5.75;;;;;;;12.83;94.83;101171.03;5005839;28;20329;-62
2023/10/05 06:47:51;;;;;;;15.55;6.68;;;;;;;12.88;94.51;101167.19;5004353;28;20078;-61
2023/10/05 06:50:18;;;;;;;13.40;5.05;;;;;;;12.91;94.16;101171.44;5006001;28;20100;-62
2023/10/05 06:52:48;;;;;;;16.35;6.78;;;;;;;12.97;94.37;101170.19;5007169;28;20161;-63
2023/10/05 06:55:21;;;;;;;19.90;6.47;;;;;;;12.99;93.61;101171.81;5023422;28;20089;-61
2023/10/05 06:57:53;;;;;;;13.02;6.32;;;;;;;12.96;94.01;101172.00;5008971;28;20123;-61
2023/10/05 07:00:21;;;;;;;15.70;6.45;;;;;;;13.02;93.88;101170.81;5023766;28;20042;-62
2023/10/05 07:02:50;;;;;;;14.20;6.05;;;;;;;13.01;93.34;101193.72;5024595;28;20104;-61
2023/10/05 07:05:18;;;;;;;23.20;6.68;;;;;;;13.11;93.76;101181.66;5006615;28;20042;-62
2023/10/05 07:07:46;;;;;;;16.23;6.13;;;;;;;13.25;92.69;101174.72;5009652;28;20050;-62
2023/10/05 07:10:15;;;;;;;13.75;5.72;;;;;;;13.24;92.39;101184.44;5010041;28;20045;-62
2023/10/05 07:12:48;;;;;;;10.50;4.78;;;;;;;13.34;92.47;101179.44;5026978;28;20045;-61
2023/10/05 07:15:19;;;;;;;20.55;5.55;;;;;;;13.33;92.27;101178.59;5010334;28;20038;-61
2023/10/05 07:17:50;;;;;;;17.60;5.47;;;;;;;13.40;91.86;101189.63;5008558;28;20054;-62
2023/10/05 07:20:22;;;;;;;12.48;5.20;;;;;;;13.40;91.22;101187.84;5006509;28;20581;-61
2023/10/05 07:22:49;;;;;;;17.20;5.88;;;;;;;13.50;91.34;101184.63;5007769;28;20932;-61
2023/10/05 07:25:17;;;;;;;12.82;5.20;;;;;;;13.53;90.91;101208.25;5009223;28;20508;-62
2023/10/05 07:27:45;;;;;;;12.05;5.32;;;;;;;13.50;90.80;101192.56;5010367;28;20803;-61
2023/10/05 07:30:13;;;;;;;13.57;6.10;;;;;;;13.49;91.18;101220.81;5008999;28;20077;-63
2023/10/05 07:32:40;;;;;;;15.18;5.63;;;;;;;13.53;90.79;101205.59;5014635;28;20170;-63
2023/10/05 07:35:12;;;;;;;11.95;5.53;;;;;;;13.59;90.29;101205.22;5007134;28;20077;-63
2023/10/05 07:37:41;;;;;;;13.93;5.65;;;;;;;13.61;90.10;101228.00;5008925;28;20706;-62
2023/10/05 07:40:09;;;;;;;13.55;5.10;;;;;;;13.72;89.67;101239.69;5008981;28;20069;-62
2023/10/05 07:42:40;;;;;;;11.85;5.07;;;;;;;13.78;89.57;101213.72;5008562;28;20559;-62
2023/10/05 07:45:08;;;;;;;16.13;5.65;;;;;;;13.90;88.57;101220.00;5005662;28;20154;-62
2023/10/05 07:47:46;;;;;;;20.25;6.38;;;;;;;13.96;88.75;101224.94;5009244;28;20067;-61
2023/10/05 07:50:14;;;;;;;14.52;5.43;;;;;;;13.94;88.87;101229.47;5002025;28;20152;-61
2023/10/05 07:52:48;;;;;;;11.85;5.95;;;;;;;14.15;88.02;101222.81;5003566;28;20072;-63
2023/10/05 07:55:15;;;;;;;15.93;5.32;;;;;;;14.14;87.80;101234.34;5008576;28;20042;-63
2023/10/05 07:57:43;;;;;;;13.90;5.05;;;;;;;14.16;87.26;101234.25;5009931;28;20042;-61
2023/10/05 08:00:12;;;;;;;12.00;4.90;;;;;;;14.28;87.33;101235.25;5012628;28;20114;-63
2023/10/05 08:02:40;;;;;;;12.30;5.40;;;;;;;14.34;86.41;101241.00;5023773;28;20097;-62
2023/10/05 08:05:10;;;;;;;13.18;5.03;;;;;;;14.57;85.96;101231.56;5016769;28;20064;-61
2023/10/05 08:07:38;;;;;;;17.42;4.35;;;;;;;14.68;84.97;101231.72;5010569;28;20054;-61
2023/10/05 08:10:11;;;;;;;13.52;5.03;;;;;;;14.78;84.06;101245.22;5031079;28;20103;-61
2023/10/05 08:12:39;;;;;;;10.75;4.53;;;;;;;14.59;84.49;101237.63;5026372;28;20105;-61
2023/10/05 08:15:07;;;;;;;13.77;4.78;;;;;;;14.63;84.73;101236.50;5018723;28;20037;-62
2023/10/05 08:17:34;;;;;;;20.48;5.75;;;;;;;14.69;83.89;101235.22;5025041;28;20108;-61
2023/10/05 08:20:04;;;;;;;18.30;4.75;;;;;;;14.57;84.69;101239.53;4997887;28;20045;-62
2023/10/05 08:22:35;;;;;;;16.15;4.60;;;;;;;14.51;84.45;101257.63;4994474;28;20082;-62
2023/10/05 08:25:11;;;;;;;26.45;5.88;;;;;;;14.48;85.19;101248.06;5008249;28;20369;-62
2023/10/05 08:27:42;;;;;;;10.98;3.90;;;;;;;14.57;85.29;101246.63;5009125;28;20050;-62
2023/10/05 08:30:13;;;;;;;14.20;4.97;;;;;;;14.67;84.37;101237.94;5008324;28;20054;-63
2023/10/05 08:32:40;;;;;;;15.40;4.65;;;;;;;14.79;83.56;101251.34;5007069;28;20100;-62
2023/10/05 08:35:14;;;;;;;15.05;5.00;;;;;;;14.93;83.39;101245.97;5010618;28;20088;-63
2023/10/05 08:37:42;;;;;;;13.13;4.72;;;;;;;15.01;82.66;101256.91;5006377;28;20508;-63
2023/10/05 08:43:13;;;;;;;11.68;4.43;;;;;;;14.82;82.70;101256.47;4998660;28;20057;-62
2023/10/05 08:45:51;;;;;;;10.73;4.45;;;;;;;14.76;83.46;101248.91;5025929;28;20473;-63
2023/10/05 08:51:12;;;;;;;11.02;3.92;;;;;;;15.14;82.00;101246.34;5013344;28;20531;-63
2023/10/05 08:53:48;;;;;;;13.90;5.07;;;;;;;15.40;80.87;101252.47;5009337;28;21845;-63
2023/10/05 08:56:16;;;;;;;11.40;4.57;;;;;;;15.35;80.25;101238.69;5002684;28;20092;-63
2023/10/05 08:58:45;;;;;;;12.75;3.72;;;;;;;15.44;80.74;101253.97;5008531;28;20099;-62
2023/10/05 09:01:33;;;;;;;15.55;4.45;;;;;;;15.38;78.34;101239.34;4995600;28;20505;-63
2023/10/05 09:04:11;;;;;;;12.88;4.38;;;;;;;15.61;78.54;101244.84;5001137;28;20693;-63
2023/10/05 09:06:57;;;;;;;11.45;3.83;;;;;;;16.11;75.92;101232.44;5023023;28;20061;-63
2023/10/05 09:09:37;;;;;;;12.77;4.55;;;;;;;16.05;75.42;101247.03;5002988;28;20069;-62
2023/10/05 09:12:26;;;;;;;17.45;4.13;;;;;;;16.25;75.33;101245.56;5004055;28;20575;-62
2023/10/05 09:15:51;;;;;;;11.82;3.67;;;;;;;16.79;73.96;101260.25;4999360;28;20087;-62
2023/10/05 09:18:17;;;;;;;9.70;4.20;;;;;;;16.60;73.24;101240.31;5009101;28;20076;-62
2023/10/05 09:20:49;;;;;;;13.05;4.65;;;;;;;16.14;74.19;101262.31;5005140;28;20112;-62
2023/10/05 09:23:20;;;;;;;12.40;3.67;;;;;;;15.80;76.01;101250.56;5016540;28;20084;-61
2023/10/05 09:25:48;;;;;;;10.77;3.90;;;;;;;15.56;77.99;101253.13;5013981;28;20073;-62
2023/10/05 09:28:51;;;;;;;11.35;3.97;;;;;;;15.73;77.31;101243.19;5020306;28;20089;-63
2023/10/05 09:31:33;;;;;;;9.05;3.95;;;;;;;15.66;78.04;101250.72;5012258;28;20108;-62
2023/10/05 09:34:05;;;;;;;16.25;4.22;;;;;;;15.72;78.46;101242.34;5011786;28;20144;-62
2023/10/05 09:36:36;;;;;;;11.07;4.05;;;;;;;15.78;77.80;101259.63;5003943;28;20081;-63
2023/10/05 09:39:04;;;;;;;14.02;4.88;;;;;;;15.48;78.14;101250.16;5013015;28;20064;-62
2023/10/05 09:41:35;;;;;;;13.70;4.72;;;;;;;15.60;78.31;101254.63;5008682;28;20075;-62
2023/10/05 09:44:07;;;;;;;15.13;4.00;;;;;;;15.72;78.59;101260.06;5011172;28;21029;-62
2023/10/05 09:46:35;;;;;;;16.08;5.22;;;;;;;15.88;78.19;101281.91;5012797;28;20133;-63
2023/10/05 09:49:05;;;;;;;14.27;4.10;;;;;;;16.05;76.98;101262.13;5006377;28;20050;-61
2023/10/05 09:51:35;;;;;;;15.20;4.78;;;;;;;16.01;76.45;101265.94;5004155;28;20081;-63
2023/10/05 09:54:08;;;;;;;12.27;4.07;;;;;;;15.92;77.06;101257.69;5008050;28;20196;-62
2023/10/05 09:56:39;;;;;;;12.75;4.18;;;;;;;15.83;77.38;101286.69;5006314;28;20076;-63
2023/10/05 09:59:15;;;;;;;10.75;4.20;;;;;;;15.77;76.88;101257.94;5008208;28;20081;-62
2023/10/05 10:01:47;;;;;;;9.23;3.03;;;;;;;15.85;76.77;101290.06;4999697;28;20065;-61
2023/10/05 10:04:34;;;;;;;12.80;3.83;;;;;;;15.65;76.79;101280.88;5005057;28;20065;-62
2023/10/05 10:07:15;;;;;;;16.58;4.80;;;;;;;15.37;77.89;101289.84;5005691;28;20050;-62
2023/10/05 10:09:46;;;;;;;14.70;4.65;;;;;;;15.37;78.53;101285.41;5017875;28;20137;-62
2023/10/05 10:12:31;;;;;;;9.90;4.15;;;;;;;15.34;78.90;101268.84;5011884;28;20573;-62
2023/10/05 10:14:59;;;;;;;10.15;4.13;;;;;;;15.38;78.90;101260.56;5009217;28;20412;-62
2023/10/05 10:17:31;;;;;;;18.52;4.35;;;;;;;15.54;78.88;101273.63;5005528;28;20073;-63
2023/10/05 10:20:57;;;;;;;13.73;5.13;;;;;;;15.52;79.18;101275.53;5004919;28;20068;-63
2023/10/05 10:23:19;;;;;;;14.48;4.57;;;;;;;15.49;80.11;101277.53;4998376;28;20137;-63
2023/10/05 10:25:46;;;;;;;10.68;3.35;;;;;;;15.47;80.88;101284.75;5005974;28;20089;-60
2023/10/05 10:28:15;;;;;;;11.18;3.83;;;;;;;15.17;84.07;101280.59;5003994;28;20160;-63
2023/10/05 10:31:13;;;;;;;10.02;4.00;;;;;;;14.94;86.64;101275.03;5008616;28;20136;-63
2023/10/05 10:33:42;;;;;;;15.60;4.70;;;;;;;14.89;87.27;101274.50;5007189;28;20053;-62
2023/10/05 10:36:19;;;;;;;12.05;3.30;;;;;;;14.87;89.15;101286.16;5028687;28;20539;-63
2023/10/05 10:38:50;;;;;;;25.13;5.40;;;;;;;14.78;90.04;101289.44;5010994;28;20100;-62
2023/10/05 10:41:21;;;;;;;15.00;4.18;;;;;;;14.72;92.23;101301.25;5009702;28;20065;-62
2023/10/05 10:44:00;;;;;;;14.25;4.30;;;;;;;14.52;95.15;101302.56;5010429;28;20045;-62
2023/10/05 10:46:29;;;;;;;14.35;4.00;;;;;;;14.43;96.71;101303.97;5016231;28;20057;-60
2023/10/05 10:48:59;;;;;;;11.85;4.22;;;;;;;14.54;97.04;101305.94;5009626;28;20068;-62
2023/10/05 10:51:33;;;;;;;11.73;4.80;;;;;;;14.53;97.23;101306.91;5021240;28;20053;-60
2023/10/05 10:54:08;;;;;;;15.98;5.78;;;;;;;14.41;97.83;101307.69;5010483;28;20058;-63
2023/10/05 10:56:41;;;;;;;10.95;4.40;;;;;;;14.33;98.15;101302.88;5008193;28;20046;-62
2023/10/05 10:59:13;;;;;;;8.73;3.50;;;;;;;14.43;98.87;101311.91;4995060;28;20057;-62
2023/10/05 11:01:43;;;;;;;11.60;4.20;;;;;;;14.36;95.85;101305.34;5013660;28;20073;-63
2023/10/05 11:04:23;;;;;;;19.42;5.03;;;;;;;14.38;95.94;101305.22;5010138;28;20065;-61
2023/10/05 11:07:00;;;;;;;10.18;4.20;;;;;;;14.43;94.87;101308.44;5008938;28;20053;-62
2023/10/05 11:09:35;;;;;;;10.43;3.97;;;;;;;14.46;93.78;101294.16;4991171;28;20125;-62
2023/10/05 11:12:10;;;;;;;13.43;4.00;;;;;;;14.51;93.66;101306.16;5010585;28;20521;-63
2023/10/05 11:14:38;;;;;;;;;;;;;;;14.56;93.03;101312.03;5014169;28;20046;-63
2023/10/05 11:17:11;;;;;;;11.93;4.47;;;;;;;14.61;91.81;101311.72;5009891;28;20023;-61
2023/10/05 11:19:40;;;;;;;11.30;3.00;;;;;;;14.66;90.81;101314.91;5003588;28;20058;-62
2023/10/05 11:22:12;;;;;;;12.75;4.07;;;;;;;14.68;89.34;101313.88;5003772;28;20076;-62
2023/10/05 11:24:59;;;;;;;10.95;3.33;;;;;;;14.73;89.16;101320.69;5024214;28;20085;-63
2023/10/05 11:27:27;;;;;;;14.93;4.95;;;;;;;14.80;89.01;101306.06;5001596;28;20073;-61
2023/10/05 11:29:56;;;;;;;12.55;3.53;;;;;;;14.94;87.76;101303.34;5006262;28;20112;-63
2023/10/05 11:32:43;;;;;;;11.32;4.50;;;;;;;15.12;86.63;101303.91;5006717;28;20161;-63
2023/10/05 11:35:40;;;;;;;10.20;4.15;;;;;;;15.30;86.17;101312.44;5006381;28;20150;-62
2023/10/05 11:38:15;;;;;;;18.50;5.47;;;;;;;15.39;86.00;101323.28;5005233;28;20523;-62
2023/10/05 11:40:49;;;;;;;14.88;4.55;;;;;;;15.23;86.55;101309.38;5005324;28;20077;-62
2023/10/05 11:43:18;;;;;;;10.02;3.72;;;;;;;15.17;88.32;101317.72;5008174;28;20083;-62
2023/10/05 11:48:54;;;;;;;8.35;3.53;;;;;;;15.02;91.34;101332.84;5004849;28;20058;-61
2023/10/05 11:51:41;;;;;;;17.83;5.20;;;;;;;14.81;94.62;101345.72;5006513;28;20045;-62
2023/10/05 11:54:09;;;;;;;16.00;3.92;;;;;;;14.78;97.05;101329.19;5009681;28;20074;-61
2023/10/05 11:56:38;;;;;;;13.23;4.43;;;;;;;14.78;99.25;101331.84;5013068;28;20211;-61
2023/10/05 11:59:07;;;;;;;12.93;4.80;;;;;;;14.50;100.00;101336.28;5007325;28;20062;-63
2023/10/05 12:01:39;;;;;;;13.30;5.32;;;;;;;14.27;100.00;101323.56;5002495;28;20056;-60
2023/10/05 12:04:08;;;;;;;14.02;4.18;;;;;;;14.26;100.00;101327.19;5007631;28;20054;-63
2023/10/05 12:06:38;;;;;;;12.70;4.95;;;;;;;14.33;100.00;101323.22;5010203;28;20672;-63
2023/10/05 12:09:09;;;;;;;11.82;4.40;;;;;;;14.34;100.00;101324.91;5014618;28;20072;-58